createdAt,value
2018-12-06T00:01:18.020Z,99534.27
2018-12-06T00:03:50.275Z,99534.13
2018-12-06T00:06:22.171Z,99529.37
2018-12-06T00:08:54.295Z,99535.13
2018-12-06T00:11:25.958Z,99537.67
2018-12-06T00:13:57.630Z,99537.48
2018-12-06T00:16:29.280Z,99534.27
2018-12-06T00:19:11.388Z,99541.63
2018-12-06T00:21:43.118Z,99537.98
2018-12-06T00:24:14.529Z,99539.13
2018-12-06T00:26:46.176Z,99540.80
2018-12-06T00:29:17.589Z,99540.80
2018-12-06T00:31:49.429Z,99542.41
2018-12-06T00:34:21.848Z,99546.52
2018-12-06T00:36:54.012Z,99545.93
2018-12-06T00:39:25.244Z,99545.58
2018-12-06T00:41:56.905Z,99550.08
2018-12-06T00:44:28.302Z,99549.16
2018-12-06T00:46:59.670Z,99548.77
2018-12-06T00:49:30.902Z,99559.75
2018-12-06T00:52:02.350Z,99557.25
2018-12-06T00:54:33.706Z,99555.09
2018-12-06T00:57:06.101Z,99549.22
2018-12-06T00:59:37.471Z,99551.14
2018-12-06T01:02:09.892Z,99558.36
2018-12-06T01:04:41.665Z,99560.83
2018-12-06T01:07:13.404Z,99569.13
2018-12-06T01:09:44.743Z,99571.49
2018-12-06T01:12:16.364Z,99572.89
2018-12-06T01:14:49.727Z,99572.44
2018-12-06T01:17:22.286Z,99580.28
2018-12-06T01:19:57.650Z,99590.80
2018-12-06T01:22:31.111Z,99594.39
2018-12-06T01:25:04.569Z,99596.09
2018-12-06T01:27:40.641Z,99604.06
2018-12-06T01:30:14.269Z,99601.45
2018-12-06T01:32:45.768Z,99598.25
2018-12-06T01:35:19.276Z,99612.23
2018-12-06T01:37:52.018Z,99618.84
2018-12-06T01:40:23.474Z,99618.28
2018-12-06T01:42:54.964Z,99622.40
2018-12-06T01:45:26.372Z,99622.36
2018-12-06T01:47:58.903Z,99618.45
2018-12-06T01:50:30.360Z,99626.28
2018-12-06T01:53:01.761Z,99625.83
2018-12-06T01:55:33.265Z,99629.36
2018-12-06T01:58:05.004Z,99636.22
2018-12-06T02:00:36.538Z,99630.99
2018-12-06T02:03:08.036Z,99633.60
2018-12-06T02:05:39.697Z,99633.08
2018-12-06T02:08:11.345Z,99636.67
2018-12-06T02:10:42.730Z,99637.79
2018-12-06T02:13:15.268Z,99642.44
2018-12-06T02:15:46.568Z,99647.75
2018-12-06T02:18:18.185Z,99651.31
2018-12-06T02:20:50.481Z,99641.97
2018-12-06T02:23:22.101Z,99650.89
2018-12-06T02:25:53.495Z,99655.20
2018-12-06T02:28:25.001Z,99642.66
2018-12-06T02:30:56.408Z,99648.73
2018-12-06T02:33:28.192Z,99640.37
2018-12-06T02:36:03.450Z,99650.77
2018-12-06T02:38:35.020Z,99650.77
2018-12-06T02:41:10.380Z,99662.75
2018-12-06T02:43:42.953Z,99658.44
2018-12-06T02:46:14.330Z,99669.55
2018-12-06T02:48:45.908Z,99675.02
2018-12-06T02:51:17.065Z,99666.64
2018-12-06T02:53:48.777Z,99674.22
2018-12-06T02:56:20.099Z,99677.75
2018-12-06T02:58:52.119Z,99679.73
2018-12-06T03:01:23.500Z,99685.08
2018-12-06T03:03:55.005Z,99691.62
2018-12-06T03:06:26.865Z,99694.72
2018-12-06T03:08:58.317Z,99696.23
2018-12-06T03:11:30.039Z,99698.45
2018-12-06T03:14:01.541Z,99694.39
2018-12-06T03:16:35.003Z,99691.71
2018-12-06T03:19:06.653Z,99698.18
2018-12-06T03:21:38.149Z,99697.53
2018-12-06T03:24:09.752Z,99700.38
2018-12-06T03:26:41.402Z,99708.62
2018-12-06T03:29:12.911Z,99708.16
2018-12-06T03:31:45.570Z,99706.72
2018-12-06T03:34:26.270Z,99713.39
2018-12-06T03:37:00.190Z,99710.38
2018-12-06T03:39:42.967Z,99710.09
2018-12-06T03:42:16.279Z,99715.77
2018-12-06T03:44:51.011Z,99719.56
2018-12-06T03:47:32.899Z,99719.66
2018-12-06T03:50:20.800Z,99719.56
2018-12-06T03:52:52.709Z,99720.28
2018-12-06T03:55:25.171Z,99724.41
2018-12-06T03:57:56.673Z,99722.48
2018-12-06T04:00:34.030Z,99727.05
2018-12-06T04:03:06.978Z,99729.07
2018-12-06T04:05:39.521Z,99727.12
2018-12-06T04:08:17.126Z,99724.91
2018-12-06T04:10:54.158Z,99724.23
2018-12-06T04:13:31.713Z,99724.34
2018-12-06T04:16:07.788Z,99725.87
2018-12-06T04:18:39.128Z,99720.77
2018-12-06T04:21:15.337Z,99717.17
2018-12-06T04:23:46.723Z,99721.67
2018-12-06T04:26:21.112Z,99717.16
2018-12-06T04:28:52.534Z,99713.21
2018-12-06T04:31:25.343Z,99713.05
2018-12-06T04:33:59.297Z,99710.60
2018-12-06T04:36:31.430Z,99711.02
2018-12-06T04:39:06.148Z,99711.55
2018-12-06T04:41:38.111Z,99716.09
2018-12-06T04:44:10.288Z,99713.45
2018-12-06T04:46:41.754Z,99713.30
2018-12-06T04:49:13.374Z,99711.23
2018-12-06T04:51:45.009Z,99712.09
2018-12-06T04:54:16.404Z,99705.39
2018-12-06T04:56:48.047Z,99703.39
2018-12-06T04:59:19.454Z,99710.79
2018-12-06T05:01:50.953Z,99700.00
2018-12-06T05:04:22.351Z,99703.25
2018-12-06T05:06:53.853Z,99696.70
2018-12-06T05:09:26.308Z,99699.86
2018-12-06T05:11:57.860Z,99693.75
2018-12-06T05:14:29.540Z,99696.48
2018-12-06T05:17:01.022Z,99695.53
2018-12-06T05:19:32.617Z,99691.78
2018-12-06T05:22:04.117Z,99692.38
2018-12-06T05:24:36.715Z,99691.66
2018-12-06T05:27:08.392Z,99691.91
2018-12-06T05:29:39.932Z,99690.47
2018-12-06T05:32:11.472Z,99687.91
2018-12-06T05:34:43.202Z,99686.80
2018-12-06T05:37:14.629Z,99690.98
2018-12-06T05:39:46.775Z,99686.70
2018-12-06T05:42:18.198Z,99684.95
2018-12-06T05:44:49.666Z,99681.13
2018-12-06T05:47:21.085Z,99677.08
2018-12-06T05:49:52.539Z,99674.33
2018-12-06T05:52:24.181Z,99675.26
2018-12-06T05:54:55.542Z,99668.61
2018-12-06T05:57:27.140Z,99666.19
2018-12-06T05:59:58.662Z,99656.31
2018-12-06T06:02:30.288Z,99660.45
2018-12-06T06:05:01.800Z,99656.39
2018-12-06T06:07:33.553Z,99651.34
2018-12-06T06:10:05.420Z,99648.30
2018-12-06T06:12:36.967Z,99640.78
2018-12-06T06:15:08.867Z,99641.55
2018-12-06T06:17:41.406Z,99634.14
2018-12-06T06:20:17.070Z,99636.19
2018-12-06T06:22:48.620Z,99626.48
2018-12-06T06:25:21.039Z,99621.61
2018-12-06T06:27:53.962Z,99614.70
2018-12-06T06:30:28.493Z,99614.41
2018-12-06T06:33:02.322Z,99607.60
2018-12-06T06:35:33.643Z,99611.60
2018-12-06T06:38:05.152Z,99604.44
2018-12-06T06:40:37.296Z,99593.83
2018-12-06T06:43:11.079Z,99592.48
2018-12-06T06:45:43.764Z,99589.55
2018-12-06T06:48:15.422Z,99582.36
2018-12-06T06:50:50.221Z,99573.22
2018-12-06T06:53:21.732Z,99572.13
2018-12-06T06:55:53.084Z,99566.28
2018-12-06T06:58:28.720Z,99562.58
2018-12-06T07:01:00.698Z,99559.91
2018-12-06T07:03:32.540Z,99555.80
2018-12-06T07:06:04.136Z,99554.15
2018-12-06T07:08:36.136Z,99543.01
2018-12-06T07:11:56.681Z,99542.70
2018-12-06T07:14:28.586Z,99533.64
2018-12-06T07:17:01.155Z,99533.52
2018-12-06T07:19:32.688Z,99530.95
2018-12-06T07:22:04.259Z,99524.93
2018-12-06T07:24:39.001Z,99518.83
2018-12-06T07:27:11.587Z,99518.16
2018-12-06T07:29:43.011Z,99519.09
2018-12-06T07:32:14.381Z,99504.30
2018-12-06T07:34:46.035Z,99499.31
2018-12-06T07:37:17.461Z,99502.91
2018-12-06T07:39:48.944Z,99500.02
2018-12-06T07:42:21.162Z,99497.02
2018-12-06T07:44:52.767Z,99489.22
2018-12-06T07:47:24.275Z,99488.76
2018-12-06T07:49:56.362Z,99485.75
2018-12-06T07:52:27.724Z,99486.88
2018-12-06T07:55:01.175Z,99484.42
2018-12-06T07:57:34.713Z,99486.77
2018-12-06T08:00:08.677Z,99472.63
2018-12-06T08:02:45.177Z,99471.85
2018-12-06T08:05:17.893Z,99471.50
2018-12-06T08:07:49.352Z,99461.54
2018-12-06T08:10:20.797Z,99458.08
2018-12-06T08:12:53.947Z,99457.52
2018-12-06T08:15:25.696Z,99452.33
2018-12-06T08:17:57.318Z,99452.78
2018-12-06T08:20:30.958Z,99452.45
2018-12-06T08:23:02.444Z,99445.58
2018-12-06T08:25:34.059Z,99442.95
2018-12-06T08:28:05.480Z,99444.07
2018-12-06T08:30:37.333Z,99445.28
2018-12-06T08:33:08.765Z,99446.22
2018-12-06T08:35:40.342Z,99441.44
2018-12-06T08:38:12.674Z,99440.14
2018-12-06T08:40:45.142Z,99439.13
2018-12-06T08:43:16.905Z,99437.02
2018-12-06T08:45:48.561Z,99433.50
2018-12-06T08:48:21.484Z,99427.31
2018-12-06T08:50:53.812Z,99422.64
2018-12-06T08:53:25.948Z,99424.02
2018-12-06T08:55:57.614Z,99420.10
2018-12-06T08:58:29.587Z,99419.16
2018-12-06T09:01:01.532Z,99419.56
2018-12-06T09:03:34.274Z,99413.93
2018-12-06T09:06:05.714Z,99413.75
2018-12-06T09:08:37.826Z,99409.31
2018-12-06T09:11:10.002Z,99405.84
2018-12-06T09:13:42.263Z,99412.15
2018-12-06T09:16:14.049Z,99399.87
2018-12-06T09:18:45.511Z,99402.03
2018-12-06T09:21:17.155Z,99400.54
2018-12-06T09:23:48.590Z,99401.48
2018-12-06T09:26:20.122Z,99402.91
2018-12-06T09:28:52.884Z,99401.08
2018-12-06T09:31:26.307Z,99403.28
2018-12-06T09:34:06.857Z,99398.49
2018-12-06T09:36:39.529Z,99404.06
2018-12-06T09:39:12.240Z,99412.70
2018-12-06T09:41:43.787Z,99407.44
2018-12-06T09:44:16.076Z,99399.74
2018-12-06T09:46:47.766Z,99403.87
2018-12-06T09:49:19.494Z,99397.89
2018-12-06T09:51:51.940Z,99407.20
2018-12-06T09:54:23.584Z,99401.55
2018-12-06T09:56:55.123Z,99406.94
2018-12-06T09:59:26.660Z,99402.55
2018-12-06T10:01:58.514Z,99406.36
2018-12-06T10:04:30.038Z,99399.78
2018-12-06T10:07:01.591Z,99405.44
2018-12-06T10:09:33.153Z,99400.20
2018-12-06T10:12:07.141Z,99406.00
2018-12-06T10:14:41.705Z,99403.19
2018-12-06T10:17:13.633Z,99397.53
2018-12-06T10:19:45.069Z,99402.59
2018-12-06T10:22:16.879Z,99406.07
2018-12-06T10:24:48.579Z,99402.03
2018-12-06T10:27:20.720Z,99404.29
2018-12-06T10:44:47.698Z,99396.98
2018-12-06T10:50:33.441Z,99391.83
2018-12-06T10:53:16.168Z,99397.16
2018-12-06T11:01:53.785Z,99388.38
2018-12-06T11:04:29.357Z,99400.91
2018-12-06T11:07:01.929Z,99395.28
2018-12-06T11:09:35.519Z,99385.84
2018-12-06T11:12:07.135Z,99383.37
2018-12-06T11:17:36.565Z,99387.42
2018-12-06T11:20:08.666Z,99389.95
2018-12-06T11:22:40.369Z,99383.83
2018-12-06T11:25:11.863Z,99387.21
2018-12-06T11:27:46.840Z,99381.58
2018-12-06T11:30:18.316Z,99383.52
2018-12-06T11:32:49.988Z,99390.88
2018-12-06T11:35:22.408Z,99390.43
2018-12-06T11:37:59.980Z,99394.20
2018-12-06T11:40:31.516Z,99397.48
2018-12-06T11:43:06.508Z,99395.52
2018-12-06T11:45:38.215Z,99393.27
2018-12-06T11:48:11.509Z,99398.52
2018-12-06T11:50:43.071Z,99397.95
2018-12-06T11:53:14.542Z,99402.45
2018-12-06T11:55:45.761Z,99408.27
2018-12-06T11:58:19.684Z,99408.10
2018-12-06T12:00:54.227Z,99414.66
2018-12-06T12:03:31.870Z,99409.77
2018-12-06T12:06:04.541Z,99415.86
2018-12-06T12:08:41.229Z,99426.27
2018-12-06T12:11:18.253Z,99428.59
2018-12-06T12:13:55.454Z,99425.33
2018-12-06T12:16:32.516Z,99427.11
2018-12-06T12:19:06.267Z,99427.95
2018-12-06T12:24:38.929Z,99437.52
2018-12-06T12:27:16.181Z,99433.20
2018-12-06T12:29:52.691Z,99439.77
2018-12-06T12:32:28.871Z,99445.77
2018-12-06T12:35:12.972Z,99444.06
2018-12-06T12:37:53.682Z,99448.47
2018-12-06T12:40:30.227Z,99454.94
2018-12-06T12:43:01.980Z,99449.85
2018-12-06T12:45:42.578Z,99451.91
2018-12-06T12:51:12.204Z,99452.09
2018-12-06T12:53:45.174Z,99464.45
2018-12-06T12:56:55.328Z,99470.82
2018-12-06T12:59:28.036Z,99465.03
2018-12-06T13:02:00.697Z,99472.68
2018-12-06T13:04:36.675Z,99477.93
2018-12-06T13:07:27.097Z,99481.31
2018-12-06T13:22:15.212Z,99491.95
2018-12-06T13:24:53.805Z,99490.87
2018-12-06T13:27:32.641Z,99487.73
2018-12-06T13:36:27.928Z,99504.66
2018-12-06T13:42:23.366Z,99503.55
2018-12-06T13:44:50.374Z,99501.00
2018-12-06T13:47:22.635Z,99505.33
2018-12-06T13:53:05.560Z,99510.88
2018-12-06T13:58:52.483Z,99518.06
